Time;durP1;ratioP1;P1;durP2;ratioP2;P2;SDS_P1;SDS_P2;PMS_P1;PMS_P2;Temp;Humidity;BMP_temperature;BMP_pressure;BME280_temperature;BME280_humidity;BME280_pressure;Samples;Min_cycle;Max_cycle;Signal;HPM_P1;HPM_P2
2023/01/15 00:00:11;;;;;;;29.00;17.00;;;;;;;-1.10;72.51;100982.51;108997;1258;58472;-72
2023/01/15 00:02:42;;;;;;;26.50;16.40;;;;;;;-1.10;72.52;100986.48;108963;1258;66262;-72
2023/01/15 00:05:13;;;;;;;25.00;16.30;;;;;;;-1.10;72.57;100993.22;108964;1257;58411;-71
2023/01/15 00:07:43;;;;;;;27.30;16.30;;;;;;;-1.10;72.69;100992.88;109023;1257;62756;-70
2023/01/15 00:10:12;;;;;;;29.20;16.20;;;;;;;-1.10;72.60;100993.73;108933;1263;58188;-69
2023/01/15 00:12:42;;;;;;;24.80;15.80;;;;;;;-1.09;72.65;100994.07;109143;1257;58126;-70
2023/01/15 00:15:13;;;;;;;22.60;15.20;;;;;;;-1.09;72.63;100990.96;109038;1257;63798;-70
2023/01/15 00:22:16;;;;;;;27.10;14.90;;;;;;;-1.10;72.63;100976.98;109103;1257;64851;-69
2023/01/15 00:32:28;;;;;;;27.00;16.20;;;;;;;-1.09;72.59;100973.68;109079;1257;65082;-70
2023/01/15 00:34:57;;;;;;;;;;;;;;;-1.09;72.65;100974.01;108978;1257;58405;-70
2023/01/15 00:37:28;;;;;;;27.50;15.60;;;;;;;-1.08;72.55;100973.65;109040;1257;65389;-70
2023/01/15 00:39:59;;;;;;;27.40;16.00;;;;;;;-1.09;72.56;100970.73;108999;1257;58267;-70
2023/01/15 00:42:29;;;;;;;23.00;14.90;;;;;;;-1.08;72.64;100970.73;108996;1257;58237;-70
2023/01/15 00:45:06;;;;;;;23.60;16.20;;;;;;;-1.08;72.60;100973.30;109054;1257;65376;-70
2023/01/15 00:47:37;;;;;;;26.40;15.90;;;;;;;-1.08;72.59;100976.08;109094;1257;58324;-70
2023/01/15 00:57:50;;;;;;;27.70;16.60;;;;;;;-1.06;72.63;100964.62;102895;1295;600908;-68
2023/01/15 01:00:17;;;;;;;22.30;15.30;;;;;;;-1.08;72.56;100962.58;105060;1260;59267;-69
2023/01/15 01:02:45;;;;;;;25.60;17.20;;;;;;;-1.07;72.57;100957.88;105096;1264;59389;-70
2023/01/15 01:05:12;;;;;;;26.90;17.00;;;;;;;-1.06;72.58;100952.35;104941;1270;65873;-71
2023/01/15 01:07:39;;;;;;;23.80;16.40;;;;;;;-1.06;72.55;100947.69;105206;1263;60950;-69
2023/01/15 01:10:07;;;;;;;28.60;16.30;;;;;;;-1.05;72.58;100950.11;105211;1261;66653;-71
2023/01/15 01:12:36;;;;;;;25.30;17.10;;;;;;;-1.06;72.64;100949.59;104875;1257;174593;-72
2023/01/15 01:15:03;;;;;;;25.80;16.10;;;;;;;-1.06;72.63;100947.69;105033;1257;59355;-69
2023/01/15 01:17:30;;;;;;;25.60;16.70;;;;;;;-1.06;72.58;100948.38;105090;1263;67775;-69
2023/01/15 01:19:57;;;;;;;24.50;17.00;;;;;;;-1.07;72.55;100945.46;104917;1257;60668;-69
2023/01/15 01:22:27;;;;;;;25.10;16.00;;;;;;;-1.09;72.60;100948.26;105562;1258;68685;-68
2023/01/15 01:24:54;;;;;;;25.40;16.50;;;;;;;-1.10;72.62;100950.88;105186;1258;59653;-68
2023/01/15 01:27:21;;;;;;;27.00;16.40;;;;;;;-1.11;72.61;100950.20;105257;1263;59552;-69
2023/01/15 01:29:48;;;;;;;29.60;16.30;;;;;;;-1.11;72.64;100949.02;105190;1258;65525;-68
2023/01/15 01:32:15;;;;;;;25.10;15.90;;;;;;;-1.11;72.66;100953.34;105313;1260;62370;-72
2023/01/15 01:34:42;;;;;;;27.20;16.00;;;;;;;-1.12;72.70;100952.67;105099;1258;66311;-69
2023/01/15 01:37:09;;;;;;;26.60;15.70;;;;;;;-1.13;72.71;100952.70;105403;1257;59694;-69
2023/01/15 01:39:36;;;;;;;25.90;15.40;;;;;;;-1.13;72.70;100955.82;105605;1257;59670;-70
2023/01/15 01:42:10;;;;;;;26.40;15.70;;;;;;;-1.14;72.72;100960.85;105417;1263;66047;-71
2023/01/15 01:44:37;;;;;;;25.40;15.20;;;;;;;-1.16;72.83;100958.96;105626;1257;60787;-71
2023/01/15 01:47:06;;;;;;;25.30;14.90;;;;;;;-1.17;72.85;100952.41;105452;1264;65691;-70
2023/01/15 01:49:34;;;;;;;25.20;15.40;;;;;;;-1.18;72.82;100945.17;105618;1260;59630;-71
2023/01/15 01:52:03;;;;;;;26.70;15.80;;;;;;;-1.19;72.88;100946.23;105820;1260;59650;-69
2023/01/15 01:54:30;;;;;;;28.60;16.20;;;;;;;-1.19;72.91;100944.17;104748;1267;66049;-69
2023/01/15 01:56:57;;;;;;;26.70;15.00;;;;;;;-1.20;72.86;100936.41;105177;1259;59592;-68
2023/01/15 01:59:24;;;;;;;24.50;15.70;;;;;;;-1.20;72.92;100930.55;105027;1259;66384;-68
2023/01/15 02:01:52;;;;;;;28.50;15.60;;;;;;;-1.20;72.90;100929.67;104974;1259;59765;-70
2023/01/15 02:04:20;;;;;;;26.00;15.90;;;;;;;-1.21;72.97;100929.52;105602;1259;59536;-69
2023/01/15 02:06:47;;;;;;;24.40;15.90;;;;;;;-1.20;73.06;100932.09;104848;1259;66879;-67
2023/01/15 02:09:14;;;;;;;27.00;15.50;;;;;;;-1.18;73.05;100933.77;105170;1262;59969;-69
2023/01/15 02:11:41;;;;;;;22.30;15.20;;;;;;;-1.17;73.05;100930.80;104928;1265;65197;-68
2023/01/15 02:14:29;;;;;;;27.20;15.50;;;;;;;-1.16;73.05;100923.20;105046;1261;59648;-68
2023/01/15 02:17:09;;;;;;;26.30;15.70;;;;;;;-1.15;73.05;100920.25;105340;1264;59610;-69
2023/01/15 02:19:51;;;;;;;28.20;15.20;;;;;;;-1.13;73.09;100917.78;104803;1261;66225;-69
2023/01/15 02:22:27;;;;;;;27.60;15.30;;;;;;;-1.11;73.06;100921.54;105045;1260;61087;-69
2023/01/15 02:25:10;;;;;;;25.80;15.70;;;;;;;-1.10;73.03;100922.72;104892;1260;66460;-70
2023/01/15 02:27:37;;;;;;;25.90;16.50;;;;;;;-1.10;73.03;100918.91;104956;1261;59736;-68
2023/01/15 02:30:27;;;;;;;25.20;16.40;;;;;;;-1.09;73.02;100916.81;105343;1256;59851;-69
2023/01/15 02:32:59;;;;;;;29.60;16.30;;;;;;;-1.07;73.00;100919.19;105062;1260;66646;-69
2023/01/15 02:35:29;;;;;;;27.20;15.70;;;;;;;-1.06;72.96;100924.01;105035;1260;59692;-69
2023/01/15 02:38:00;;;;;;;25.10;16.40;;;;;;;-1.05;72.98;100929.02;105247;1260;66969;-70
2023/01/15 02:40:28;;;;;;;26.60;16.10;;;;;;;-1.05;72.87;100927.80;105530;1261;59968;-73
2023/01/15 02:42:55;;;;;;;24.60;16.30;;;;;;;-1.06;72.89;100927.11;105573;1263;59667;-70
2023/01/15 02:45:31;;;;;;;25.90;15.60;;;;;;;-1.07;72.85;100925.91;105619;1255;74645;-69
2023/01/15 02:48:05;;;;;;;26.70;15.60;;;;;;;-1.07;72.85;100928.34;105258;1254;61008;-72
2023/01/15 02:50:35;;;;;;;27.50;15.70;;;;;;;-1.08;72.91;100930.09;105837;1254;66552;-71
2023/01/15 02:53:06;;;;;;;22.60;15.00;;;;;;;-1.08;72.88;100935.45;106131;1257;59584;-70
2023/01/15 02:55:37;;;;;;;28.90;15.90;;;;;;;-1.08;72.94;100935.98;105844;1253;59715;-71
2023/01/15 02:58:07;;;;;;;27.50;15.90;;;;;;;-1.09;72.90;100936.52;105498;1254;66628;-71
2023/01/15 03:00:37;;;;;;;23.70;15.70;;;;;;;-1.08;73.00;100936.14;105471;1261;60825;-70
2023/01/15 03:03:26;;;;;;;26.30;15.80;;;;;;;-1.08;73.03;100932.87;105757;1260;65426;-71
2023/01/15 03:06:06;;;;;;;24.70;15.50;;;;;;;-1.09;73.04;100937.38;106111;1257;60170;-70
2023/01/15 03:08:33;;;;;;;24.70;15.60;;;;;;;-1.10;72.97;100939.31;105689;1264;60216;-69
2023/01/15 03:11:08;;;;;;;28.20;15.80;;;;;;;-1.11;73.10;100939.67;105536;1258;66862;-69
2023/01/15 03:13:40;;;;;;;27.50;15.80;;;;;;;-1.11;73.13;100938.29;105266;1254;61203;-69
2023/01/15 03:16:34;;;;;;;26.50;15.60;;;;;;;-1.11;73.15;100930.53;105326;1259;66934;-69
2023/01/15 03:19:23;;;;;;;28.20;15.30;;;;;;;-1.11;73.22;100927.59;105485;1260;59603;-70
2023/01/15 03:22:06;;;;;;;24.90;15.40;;;;;;;-1.12;73.19;100925.02;105638;1254;59720;-69
2023/01/15 03:24:43;;;;;;;25.10;14.90;;;;;;;-1.13;73.25;100918.30;105250;1260;67086;-70
2023/01/15 03:27:11;;;;;;;23.50;15.00;;;;;;;-1.14;73.32;100916.77;105250;1259;60686;-69
2023/01/15 03:29:44;;;;;;;29.00;15.80;;;;;;;-1.14;73.35;100916.60;105571;1270;65799;-70
2023/01/15 03:32:11;;;;;;;26.30;15.10;;;;;;;-1.13;73.45;100916.23;105419;1258;59667;-69
2023/01/15 03:34:54;;;;;;;26.80;15.00;;;;;;;-1.11;73.40;100915.49;105479;1260;59804;-70
2023/01/15 03:37:23;;;;;;;26.30;14.80;;;;;;;-1.11;73.45;100918.75;105526;1261;67002;-69
2023/01/15 03:39:52;;;;;;;30.80;15.00;;;;;;;-1.10;73.46;100920.98;105231;1255;60959;-70
2023/01/15 03:42:43;;;;;;;30.80;16.00;;;;;;;-1.09;73.47;100919.24;105246;1258;65534;-69
2023/01/15 03:45:16;;;;;;;22.90;14.90;;;;;;;-1.09;73.54;100917.50;105906;1256;59861;-71
2023/01/15 03:47:55;;;;;;;29.20;16.00;;;;;;;-1.10;73.57;100914.92;105643;1254;59790;-72
2023/01/15 03:50:31;;;;;;;27.20;15.10;;;;;;;-1.12;73.55;100920.01;105855;1255;66985;-71
2023/01/15 03:53:08;;;;;;;30.70;16.20;;;;;;;-1.14;73.59;100925.41;105750;1254;61248;-70
2023/01/15 03:56:04;;;;;;;29.60;17.90;;;;;;;-1.16;73.64;100924.58;105016;1254;66305;-68
2023/01/15 03:58:46;;;;;;;32.30;18.30;;;;;;;-1.18;73.60;100925.64;105061;1259;59623;-69
2023/01/15 04:01:18;;;;;;;31.50;18.60;;;;;;;-1.18;73.67;100924.79;105543;1259;59698;-69
2023/01/15 04:03:47;;;;;;;30.80;19.50;;;;;;;-1.18;73.71;100926.52;105534;1259;66889;-69
2023/01/15 04:06:15;;;;;;;38.00;19.40;;;;;;;-1.17;73.71;100929.60;105489;1255;61207;-69
2023/01/15 04:08:42;;;;;;;35.90;20.00;;;;;;;-1.15;73.78;100930.63;105430;1253;66593;-69
2023/01/15 04:11:09;;;;;;;41.30;20.80;;;;;;;-1.13;73.85;100930.23;105339;1256;59647;-70
2023/01/15 04:13:44;;;;;;;34.00;20.40;;;;;;;-1.12;73.73;100931.58;105225;1260;59633;-69
2023/01/15 04:16:29;;;;;;;33.80;19.40;;;;;;;-1.11;73.72;100932.25;105223;1260;67103;-70
2023/01/15 04:18:57;;;;;;;34.20;20.00;;;;;;;-1.10;73.67;100935.17;105270;1254;60738;-71
2023/01/15 04:21:24;;;;;;;40.20;19.90;;;;;;;-1.11;73.68;100935.70;106574;1254;66785;-71
2023/01/15 04:23:51;;;;;;;34.70;20.20;;;;;;;-1.11;73.67;100934.67;107165;1258;59733;-69
2023/01/15 04:26:18;;;;;;;33.60;20.70;;;;;;;-1.11;73.65;100931.05;105673;1254;61068;-72
2023/01/15 04:28:45;;;;;;;38.00;21.80;;;;;;;-1.12;73.65;100926.92;105819;1254;65690;-71
2023/01/15 04:31:12;;;;;;;36.50;21.60;;;;;;;-1.11;73.73;100922.90;105554;1262;59801;-69
2023/01/15 04:33:39;;;;;;;36.40;22.20;;;;;;;-1.10;73.68;100927.55;105895;1259;66672;-69
2023/01/15 04:36:07;;;;;;;39.80;22.70;;;;;;;-1.12;73.69;100931.91;106185;1254;59659;-71
2023/01/15 04:38:37;;;;;;;39.40;23.50;;;;;;;-1.13;73.68;100934.20;105872;1254;59663;-70
2023/01/15 04:44:05;;;;;;;42.70;25.80;;;;;;;-1.14;73.67;100923.52;105068;1259;61213;-70
2023/01/15 04:46:40;;;;;;;43.20;27.70;;;;;;;-1.16;73.69;100925.27;105385;1259;65517;-70
2023/01/15 04:49:13;;;;;;;48.90;28.40;;;;;;;-1.17;73.69;100926.65;105470;1254;59667;-70
2023/01/15 04:51:40;;;;;;;41.60;27.90;;;;;;;-1.17;73.68;100929.09;105371;1259;59638;-70
2023/01/15 04:54:07;;;;;;;44.30;27.60;;;;;;;-1.19;73.67;100926.35;105334;1259;67042;-70
2023/01/15 04:56:42;;;;;;;46.60;27.70;;;;;;;-1.20;73.72;100924.66;105687;1260;59691;-70
2023/01/15 04:59:09;;;;;;;46.40;27.70;;;;;;;-1.22;73.69;100925.58;105533;1255;66261;-68
2023/01/15 05:01:37;;;;;;;44.00;27.40;;;;;;;-1.24;73.77;100924.93;105958;1256;59754;-69
2023/01/15 05:04:04;;;;;;;45.60;27.70;;;;;;;-1.25;73.74;100926.34;105284;1256;59717;-69
2023/01/15 05:06:31;;;;;;;55.80;33.70;;;;;;;-1.27;73.78;100928.27;105676;1253;65907;-70
2023/01/15 05:08:59;;;;;;;57.30;35.30;;;;;;;-1.28;73.79;100930.72;105186;1260;59652;-69
2023/01/15 05:11:26;;;;;;;54.40;32.40;;;;;;;-1.30;73.82;100932.14;105331;1255;65427;-69
2023/01/15 05:13:54;;;;;;;72.00;43.10;;;;;;;-1.32;73.91;100934.08;105287;1254;60322;-70
2023/01/15 05:16:25;;;;;;;64.60;38.90;;;;;;;-1.33;73.88;100931.02;105358;1260;60397;-71
2023/01/15 05:18:53;;;;;;;54.70;32.80;;;;;;;-1.32;73.98;100929.27;105354;1257;68366;-68
2023/01/15 05:21:25;;;;;;;49.00;28.30;;;;;;;-1.32;73.96;100930.46;105369;1254;60908;-68
2023/01/15 05:23:53;;;;;;;47.50;28.60;;;;;;;-1.33;73.90;100927.55;105665;1256;65438;-69
2023/01/15 05:26:20;;;;;;;45.00;28.20;;;;;;;-1.32;73.92;100929.79;105440;1260;60780;-68
2023/01/15 05:28:48;;;;;;;46.00;27.70;;;;;;;-1.32;73.91;100927.20;105403;1254;60364;-69
2023/01/15 05:31:16;;;;;;;54.60;26.80;;;;;;;-1.33;73.90;100924.63;105355;1254;68101;-70
2023/01/15 05:33:46;;;;;;;42.50;27.30;;;;;;;-1.34;73.89;100927.05;105402;1256;60711;-70
2023/01/15 05:36:14;;;;;;;42.20;26.50;;;;;;;-1.34;73.92;100929.31;105738;1256;66503;-69
2023/01/15 05:38:41;;;;;;;48.60;28.90;;;;;;;-1.35;73.99;100927.76;105717;1257;60468;-69
2023/01/15 05:44:07;;;;;;;46.50;27.40;;;;;;;-1.36;73.98;100922.76;105482;1258;67502;-69
2023/01/15 05:46:35;;;;;;;45.00;28.30;;;;;;;-1.38;74.04;100915.20;105471;1255;60545;-69
2023/01/15 05:49:08;;;;;;;49.20;27.20;;;;;;;-1.37;74.04;100910.17;105540;1259;65560;-70
2023/01/15 05:51:35;;;;;;;50.50;29.10;;;;;;;-1.35;74.11;100909.11;105374;1258;60556;-69
2023/01/15 05:54:03;;;;;;;52.00;30.40;;;;;;;-1.34;74.08;100905.48;105421;1254;60470;-69
2023/01/15 05:56:30;;;;;;;54.70;30.20;;;;;;;-1.33;74.15;100907.70;105332;1254;67955;-70
2023/01/15 05:58:57;;;;;;;63.40;32.90;;;;;;;-1.31;74.24;100910.23;105511;1254;60953;-69
2023/01/15 06:01:24;;;;;;;59.70;33.30;;;;;;;-1.29;74.24;100913.80;105566;1254;66697;-70
2023/01/15 06:03:52;;;;;;;64.20;33.30;;;;;;;-1.27;74.25;100918.42;104964;1257;60493;-70
2023/01/15 06:06:19;;;;;;;58.20;32.70;;;;;;;-1.26;74.32;100922.73;105793;1254;59238;-69
2023/01/15 06:08:46;;;;;;;62.00;33.00;;;;;;;-1.25;74.35;100922.36;105298;1259;67750;-71
2023/01/15 06:11:13;;;;;;;58.60;33.40;;;;;;;-1.23;74.36;100918.00;105608;1254;60400;-70
2023/01/15 06:13:40;;;;;;;54.10;29.80;;;;;;;-1.21;74.46;100913.62;105257;1254;66588;-69
2023/01/15 06:16:11;;;;;;;51.60;29.10;;;;;;;-1.19;74.44;100915.81;105462;1257;61148;-70
2023/01/15 06:18:38;;;;;;;44.50;25.50;;;;;;;-1.17;74.48;100920.27;105806;1259;60524;-69
2023/01/15 06:21:07;;;;;;;52.00;28.90;;;;;;;-1.14;74.55;100922.31;105347;1260;66223;-69
2023/01/15 06:23:37;;;;;;;55.10;33.40;;;;;;;-1.13;74.56;100918.99;105269;1260;60451;-71
2023/01/15 06:26:06;;;;;;;55.80;33.20;;;;;;;-1.12;74.68;100918.45;105245;1257;66276;-69
2023/01/15 06:28:33;;;;;;;53.10;27.60;;;;;;;-1.08;74.86;100920.41;105447;1257;60873;-69
2023/01/15 06:31:04;;;;;;;36.10;21.10;;;;;;;-1.05;74.89;100920.02;105200;1262;60400;-70
2023/01/15 06:33:31;;;;;;;31.80;19.20;;;;;;;-1.02;75.00;100917.88;105445;1254;66328;-69
2023/01/15 06:35:58;;;;;;;38.90;19.30;;;;;;;-1.00;75.03;100915.91;105196;1254;69244;-70
2023/01/15 06:38:25;;;;;;;31.20;17.80;;;;;;;-0.98;75.06;100914.98;105209;1257;65146;-70
2023/01/15 06:40:52;;;;;;;36.70;20.40;;;;;;;-0.97;75.08;100913.94;105421;1257;60888;-70
2023/01/15 06:48:53;;;;;;;35.40;19.80;;;;;;;-0.98;75.28;100911.20;105717;1256;60343;-70
2023/01/15 06:51:20;;;;;;;38.20;19.90;;;;;;;-0.98;75.36;100907.21;105308;1254;66488;-69
2023/01/15 06:53:47;;;;;;;27.70;17.00;;;;;;;-0.97;75.45;100902.35;105057;1254;60451;-69
2023/01/15 06:56:14;;;;;;;26.40;18.30;;;;;;;-0.95;75.52;100901.11;105605;1254;60501;-70
2023/01/15 06:58:42;;;;;;;34.00;17.30;;;;;;;-0.93;75.62;100896.91;105435;1253;67860;-69
2023/01/15 07:01:09;;;;;;;32.50;17.70;;;;;;;-0.92;75.68;100896.01;105315;1254;60626;-71
2023/01/15 07:03:36;;;;;;;29.30;17.30;;;;;;;-0.92;75.73;100897.58;105707;1256;66921;-69
2023/01/15 07:06:08;;;;;;;36.70;17.90;;;;;;;-0.90;75.75;100898.39;105219;1254;60486;-70
2023/01/15 07:08:35;;;;;;;29.80;16.60;;;;;;;-0.89;75.81;100894.89;105273;1262;60445;-69
2023/01/15 07:11:07;;;;;;;24.40;14.80;;;;;;;-0.87;75.89;100894.50;105524;1254;67868;-69
2023/01/15 07:13:34;;;;;;;32.10;17.50;;;;;;;-0.86;75.89;100895.88;106044;1254;61279;-69
2023/01/15 07:16:01;;;;;;;32.50;18.70;;;;;;;-0.83;76.02;100899.11;105485;1254;66529;-69
2023/01/15 07:18:29;;;;;;;33.70;18.10;;;;;;;-0.81;76.03;100894.55;105529;1256;60552;-70
2023/01/15 07:20:56;;;;;;;36.40;19.60;;;;;;;-0.80;76.00;100897.10;105221;1260;60454;-70
2023/01/15 07:23:24;;;;;;;36.40;19.20;;;;;;;-0.78;76.06;100901.91;105493;1260;67998;-71
2023/01/15 07:25:53;;;;;;;33.30;18.00;;;;;;;-0.76;76.03;100907.58;105964;1260;61508;-70
2023/01/15 07:28:23;;;;;;;36.20;19.50;;;;;;;-0.73;76.05;100910.61;106259;1260;62808;-72
2023/01/15 07:30:51;;;;;;;32.00;19.60;;;;;;;-0.71;76.09;100912.45;105570;1254;60449;-71
2023/01/15 07:33:20;;;;;;;37.80;19.10;;;;;;;-0.68;76.12;100911.16;105861;1256;59313;-73
2023/01/15 07:35:49;;;;;;;33.60;18.60;;;;;;;-0.64;76.10;100913.15;105637;1254;65080;-73
2023/01/15 07:38:17;;;;;;;39.40;19.70;;;;;;;-0.62;76.07;100915.70;106022;1258;60240;-72
2023/01/15 07:49:44;;;;;;;31.50;19.30;;;;;;;-0.61;76.03;100914.27;105661;1254;65436;-69
2023/01/15 07:51:55;;;;;;;34.90;18.40;;;;;;;-0.45;76.18;100928.25;105379;1254;60695;-70
2023/01/15 07:54:25;;;;;;;28.50;18.00;;;;;;;-0.40;76.26;100928.29;105582;1256;67035;-72
2023/01/15 07:56:53;;;;;;;30.20;18.20;;;;;;;-0.35;76.22;100932.13;105430;1256;60496;-70
2023/01/15 07:59:23;;;;;;;35.60;18.70;;;;;;;-0.30;76.12;100929.41;105300;1253;61558;-71
2023/01/15 08:01:51;;;;;;;31.80;18.80;;;;;;;-0.27;76.08;100927.98;105604;1254;66617;-72
2023/01/15 08:04:18;;;;;;;31.20;17.80;;;;;;;-0.25;76.02;100927.58;105783;1258;60613;-70
2023/01/15 08:06:46;;;;;;;38.90;19.20;;;;;;;-0.25;75.97;100927.91;105602;1256;62430;-72
2023/01/15 08:09:13;;;;;;;31.50;17.70;;;;;;;-0.27;75.90;100928.48;105471;1261;60536;-73
2023/01/15 08:17:16;;;;;;;35.60;17.00;;;;;;;-0.23;75.94;100926.13;105726;1258;60642;-71
2023/01/15 08:19:43;;;;;;;31.60;18.20;;;;;;;-0.20;75.93;100927.08;105705;1257;65602;-71
2023/01/15 08:22:10;;;;;;;31.90;19.20;;;;;;;-0.16;75.96;100925.59;106262;1258;60483;-71
2023/01/15 08:24:37;;;;;;;33.50;18.50;;;;;;;-0.08;76.04;100926.93;106420;1260;60375;-70
2023/01/15 08:27:04;;;;;;;30.90;18.70;;;;;;;-0.02;76.05;100923.48;107121;1254;67510;-71
2023/01/15 08:29:31;;;;;;;39.60;18.70;;;;;;;0.04;75.92;100915.02;106331;1254;60411;-72
2023/01/15 08:31:58;;;;;;;34.50;19.10;;;;;;;0.07;75.80;100913.04;105591;1259;66581;-70
2023/01/15 08:34:28;;;;;;;36.20;20.20;;;;;;;0.08;75.69;100907.09;105734;1254;60429;-72
2023/01/15 08:36:58;;;;;;;31.90;19.20;;;;;;;0.11;75.69;100905.31;105923;1260;60505;-71
2023/01/15 08:39:26;;;;;;;32.90;18.20;;;;;;;0.13;75.61;100903.52;105907;1254;66603;-71
2023/01/15 08:41:54;;;;;;;35.40;18.30;;;;;;;0.16;75.54;100898.72;105948;1261;61174;-71
2023/01/15 08:44:22;;;;;;;35.90;19.10;;;;;;;0.20;75.46;100897.08;105992;1254;66549;-72
2023/01/15 08:46:50;;;;;;;41.10;24.80;;;;;;;0.22;75.38;100899.25;105844;1253;60540;-69
2023/01/15 08:49:17;;;;;;;37.90;25.40;;;;;;;0.23;75.25;100894.56;105924;1254;60375;-68
2023/01/15 08:51:46;;;;;;;43.70;25.10;;;;;;;0.24;75.10;100893.15;105770;1254;66636;-70
2023/01/15 08:54:13;;;;;;;44.10;24.90;;;;;;;0.26;75.09;100888.57;105765;1254;60965;-71
2023/01/15 08:56:40;;;;;;;39.10;24.70;;;;;;;0.30;75.07;100883.64;105877;1254;66673;-72
2023/01/15 08:59:07;;;;;;;40.00;21.70;;;;;;;0.32;75.03;100877.15;105862;1255;60496;-68
2023/01/15 09:01:34;;;;;;;43.80;26.70;;;;;;;0.36;74.91;100872.52;105716;1253;60432;-68
2023/01/15 09:04:01;;;;;;;40.30;27.00;;;;;;;0.42;74.88;100873.40;105993;1255;66283;-68
2023/01/15 09:06:28;;;;;;;44.90;29.70;;;;;;;0.45;74.73;100876.77;105359;1258;60988;-69
2023/01/15 09:08:55;;;;;;;45.30;26.80;;;;;;;0.46;74.52;100875.69;105569;1258;66248;-70
2023/01/15 09:11:23;;;;;;;41.20;24.90;;;;;;;0.48;74.48;100872.67;105527;1256;60462;-68
2023/01/15 09:13:50;;;;;;;47.10;27.20;;;;;;;0.52;74.37;100869.43;105624;1258;60464;-70
2023/01/15 09:16:17;;;;;;;42.40;28.50;;;;;;;0.55;74.25;100870.39;105913;1254;66570;-69
2023/01/15 09:18:44;;;;;;;42.30;25.70;;;;;;;0.58;74.02;100866.67;105649;1254;60618;-72
2023/01/15 09:21:11;;;;;;;40.10;24.40;;;;;;;0.61;73.89;100863.46;105810;1256;66738;-69
2023/01/15 09:23:38;;;;;;;38.70;23.30;;;;;;;0.66;73.77;100857.42;105119;1259;62039;-68
2023/01/15 09:26:05;;;;;;;36.00;23.20;;;;;;;0.69;73.71;100858.02;105148;1256;60283;-70
2023/01/15 09:28:33;;;;;;;34.20;21.10;;;;;;;0.73;73.60;100858.08;105048;1254;66396;-69
2023/01/15 09:31:00;;;;;;;36.50;21.30;;;;;;;0.76;73.50;100853.11;105146;1254;60820;-69
2023/01/15 09:33:27;;;;;;;36.10;23.20;;;;;;;0.81;73.43;100846.88;105167;1257;66563;-69
2023/01/15 09:35:54;;;;;;;40.20;24.30;;;;;;;0.85;73.25;100844.99;105022;1254;60345;-69
2023/01/15 09:38:21;;;;;;;36.90;25.00;;;;;;;0.87;73.01;100841.67;105184;1260;61140;-69
2023/01/15 09:40:56;;;;;;;37.00;23.50;;;;;;;0.88;72.76;100838.71;105222;1256;67958;-70
2023/01/15 09:43:23;;;;;;;34.30;21.50;;;;;;;0.88;72.53;100840.28;105281;1254;60606;-70
2023/01/15 09:46:09;;;;;;;29.20;18.40;;;;;;;0.87;72.39;100836.30;105512;1255;65378;-69
2023/01/15 09:48:36;;;;;;;32.80;20.30;;;;;;;0.89;72.15;100830.00;105385;1256;60559;-70
2023/01/15 09:51:38;;;;;;;32.60;19.80;;;;;;;0.91;72.03;100822.83;105228;1254;60413;-69
2023/01/15 09:54:14;;;;;;;30.60;20.50;;;;;;;0.96;71.84;100818.16;105193;1256;66611;-69
2023/01/15 09:56:43;;;;;;;30.90;19.40;;;;;;;1.00;71.66;100812.48;105250;1258;60589;-69
2023/01/15 09:59:23;;;;;;;31.30;18.10;;;;;;;1.01;71.41;100808.60;105255;1256;66436;-69
2023/01/15 10:01:50;;;;;;;32.10;19.40;;;;;;;1.02;71.16;100808.75;105710;1254;60450;-69
2023/01/15 10:04:34;;;;;;;30.70;17.80;;;;;;;1.06;71.19;100807.08;105321;1254;60528;-71
2023/01/15 10:07:13;;;;;;;29.90;17.70;;;;;;;1.12;71.07;100805.11;105298;1256;66610;-68
2023/01/15 10:10:10;;;;;;;30.90;16.70;;;;;;;1.15;70.85;100795.83;105385;1257;60353;-70
2023/01/15 10:12:38;;;;;;;25.00;15.50;;;;;;;1.16;70.65;100789.20;105776;1254;66945;-71
2023/01/15 10:15:11;;;;;;;29.80;16.40;;;;;;;1.19;70.42;100786.70;106863;1255;60372;-68
2023/01/15 10:17:42;;;;;;;27.80;15.20;;;;;;;1.18;70.28;100783.43;105718;1255;60552;-74
2023/01/15 10:20:42;;;;;;;34.60;16.40;;;;;;;1.17;70.14;100776.88;106152;1254;66084;-70
2023/01/15 10:23:54;;;;;;;31.80;16.10;;;;;;;1.17;69.96;100773.94;105253;1260;60634;-71
2023/01/15 10:26:39;;;;;;;27.40;14.90;;;;;;;1.12;69.82;100771.45;105499;1257;66278;-73
2023/01/15 10:29:44;;;;;;;27.60;14.90;;;;;;;1.10;69.66;100770.51;105890;1255;60553;-75
2023/01/15 10:32:17;;;;;;;28.70;15.50;;;;;;;1.09;69.66;100770.38;105806;1256;60369;-72
2023/01/15 10:35:07;;;;;;;26.80;16.30;;;;;;;1.08;69.63;100772.32;105499;1258;67768;-71
2023/01/15 10:38:14;;;;;;;32.60;16.20;;;;;;;1.08;69.57;100766.59;106175;1258;59678;-69
2023/01/15 10:40:44;;;;;;;27.90;15.70;;;;;;;1.11;69.61;100764.75;105469;1258;65428;-69
2023/01/15 10:43:24;;;;;;;32.70;16.30;;;;;;;1.12;69.43;100763.48;105511;1256;61090;-69
2023/01/15 10:46:02;;;;;;;27.50;16.70;;;;;;;1.12;69.44;100765.22;105296;1256;60566;-66
2023/01/15 10:48:49;;;;;;;26.90;16.90;;;;;;;1.11;69.36;100763.00;105290;1260;67772;-67
2023/01/15 10:51:21;;;;;;;33.40;18.30;;;;;;;1.10;69.34;100757.83;105412;1256;61320;-67
2023/01/15 10:53:52;;;;;;;27.40;15.90;;;;;;;1.13;69.30;100753.05;105318;1260;66787;-67
2023/01/15 10:56:31;;;;;;;25.60;15.10;;;;;;;1.15;69.26;100753.16;105416;1256;60486;-71
2023/01/15 10:59:04;;;;;;;24.80;15.20;;;;;;;1.16;69.13;100747.05;105091;1254;60445;-70
2023/01/15 11:01:31;;;;;;;28.90;16.30;;;;;;;1.19;69.05;100741.77;105503;1256;68320;-70
2023/01/15 11:03:58;;;;;;;29.40;15.50;;;;;;;1.22;68.99;100741.47;105286;1256;60385;-69
2023/01/15 11:06:29;;;;;;;24.50;14.00;;;;;;;1.25;68.84;100740.50;105408;1256;66681;-69
2023/01/15 11:08:57;;;;;;;25.90;14.40;;;;;;;1.28;68.75;100743.02;105649;1256;60585;-70
2023/01/15 11:20:21;;;;;;;32.60;14.00;;;;;;;1.24;67.77;100741.77;105460;1256;66525;-69
2023/01/15 11:22:48;;;;;;;24.20;14.30;;;;;;;1.19;67.61;100741.61;105608;1258;60420;-67
2023/01/15 11:25:24;;;;;;;27.40;14.40;;;;;;;1.14;67.50;100739.64;105311;1255;60588;-70
2023/01/15 11:27:51;;;;;;;29.60;15.50;;;;;;;1.12;67.48;100736.27;106062;1256;66404;-69
2023/01/15 11:30:30;;;;;;;30.90;14.20;;;;;;;1.11;67.47;100732.13;105542;1256;61313;-69
2023/01/15 11:32:59;;;;;;;24.80;14.10;;;;;;;1.12;67.44;100731.59;106023;1257;65506;-68
2023/01/15 11:35:26;;;;;;;27.30;15.20;;;;;;;1.14;67.44;100727.86;105762;1255;60457;-68
2023/01/15 11:38:04;;;;;;;30.20;15.90;;;;;;;1.15;67.47;100724.70;104928;1256;61176;-68
2023/01/15 11:40:31;;;;;;;27.00;14.90;;;;;;;1.18;67.39;100726.03;105270;1255;67758;-67
2023/01/15 11:51:30;;;;;;;24.80;13.30;;;;;;;1.23;67.17;100715.08;105030;1256;60611;-69
2023/01/15 11:54:04;;;;;;;21.30;12.40;;;;;;;1.25;67.17;100713.63;106064;1260;67721;-70
2023/01/15 11:56:30;;;;;;;;;;;;;;;1.26;67.00;100709.95;105678;1256;62440;-69
2023/01/15 11:59:00;;;;;;;24.80;14.10;;;;;;;1.27;66.88;100708.52;105351;1261;66543;-71
2023/01/15 12:01:34;;;;;;;27.20;15.00;;;;;;;1.25;66.76;100706.32;105437;1258;60733;-69
2023/01/15 12:04:03;;;;;;;29.60;14.50;;;;;;;1.23;66.66;100705.88;105518;1259;60460;-69
2023/01/15 12:06:30;;;;;;;27.40;13.80;;;;;;;1.21;66.63;100704.90;105380;1256;66614;-70
2023/01/15 12:09:21;;;;;;;22.20;12.80;;;;;;;1.22;66.70;100703.65;105298;1257;61132;-70
2023/01/15 12:11:51;;;;;;;29.10;13.30;;;;;;;1.25;66.75;100704.94;105649;1259;66670;-69
2023/01/15 12:14:33;;;;;;;26.10;13.80;;;;;;;1.26;66.68;100699.00;105519;1256;60661;-70
2023/01/15 12:17:30;;;;;;;23.60;12.30;;;;;;;1.29;66.68;100695.96;105460;1255;60478;-69
2023/01/15 12:20:05;;;;;;;26.40;13.30;;;;;;;1.32;66.69;100691.68;105389;1260;67711;-70
2023/01/15 12:22:37;;;;;;;25.50;13.30;;;;;;;1.34;66.68;100693.31;105389;1260;60824;-69
2023/01/15 12:25:20;;;;;;;22.70;12.20;;;;;;;1.37;66.62;100695.84;105488;1256;66386;-69